Time;durP1;ratioP1;P1;durP2;ratioP2;P2;SDS_P1;SDS_P2;PMS_P1;PMS_P2;Temp;Humidity;BMP_temperature;BMP_pressure;BME280_temperature;BME280_humidity;BME280_pressure;Samples;Min_cycle;Max_cycle;Signal;HPM_P1;HPM_P2
2020/12/24 00:02:12;;;;;;;9.67;7.53;;;11.20;99.90;;;;;;4995597;28;20476;-61
2020/12/24 00:04:38;;;;;;;7.90;6.80;;;11.20;99.90;;;;;;4995380;28;20774;-60
2020/12/24 00:07:04;;;;;;;9.50;7.10;;;11.20;99.90;;;;;;4995596;28;20531;-61
2020/12/24 00:09:31;;;;;;;11.43;6.77;;;11.20;99.90;;;;;;4995506;28;20505;-60
2020/12/24 00:11:57;;;;;;;7.83;6.60;;;11.30;99.90;;;;;;4995697;28;20492;-60
2020/12/24 00:14:24;;;;;;;11.50;6.53;;;11.30;99.90;;;;;;4995701;28;20465;-61
2020/12/24 00:16:50;;;;;;;6.80;6.10;;;11.30;99.90;;;;;;4995270;28;20462;-60
2020/12/24 00:19:16;;;;;;;7.70;6.30;;;11.30;99.90;;;;;;4996085;28;20513;-60
2020/12/24 00:21:42;;;;;;;8.13;6.50;;;11.30;99.90;;;;;;4995363;28;20477;-60
2020/12/24 00:24:08;;;;;;;7.67;5.67;;;11.30;99.90;;;;;;4995292;28;20493;-60
2020/12/24 00:26:35;;;;;;;7.57;6.13;;;11.40;99.90;;;;;;4996148;28;20596;-60
2020/12/24 00:29:06;;;;;;;6.87;5.50;;;11.40;99.90;;;;;;4999565;28;20495;-60
2020/12/24 00:31:32;;;;;;;7.67;6.07;;;11.40;99.90;;;;;;4999354;28;20441;-60
2020/12/24 00:33:59;;;;;;;7.47;6.13;;;11.40;99.90;;;;;;4999386;28;20493;-60
2020/12/24 00:36:25;;;;;;;6.80;6.10;;;11.40;99.90;;;;;;4999267;28;20474;-61
2020/12/24 00:38:51;;;;;;;7.13;5.57;;;11.40;99.90;;;;;;4999685;28;20485;-60
2020/12/24 00:41:17;;;;;;;6.47;5.60;;;11.40;99.90;;;;;;4999659;28;20485;-61
2020/12/24 00:43:43;;;;;;;8.17;5.40;;;11.50;99.90;;;;;;4999298;28;20624;-61
2020/12/24 00:46:09;;;;;;;6.20;5.10;;;11.50;99.90;;;;;;4999111;28;20462;-60
2020/12/24 00:48:36;;;;;;;5.90;5.30;;;11.50;99.90;;;;;;4998995;28;20485;-60
2020/12/24 00:51:02;;;;;;;5.90;4.47;;;11.50;99.90;;;;;;4998744;28;20497;-60
2020/12/24 00:53:28;;;;;;;5.80;4.30;;;11.50;99.90;;;;;;4999153;28;20744;-60
2020/12/24 00:55:54;;;;;;;5.40;4.50;;;11.50;99.90;;;;;;4998959;28;20493;-60
2020/12/24 00:58:20;;;;;;;5.40;4.70;;;11.50;99.90;;;;;;4999057;28;20462;-60
2020/12/24 01:00:47;;;;;;;4.60;3.63;;;11.50;99.90;;;;;;4998782;28;20591;-60
2020/12/24 01:03:13;;;;;;;5.80;4.30;;;11.50;99.90;;;;;;4998943;28;20462;-60
2020/12/24 01:05:39;;;;;;;4.47;4.07;;;11.50;99.90;;;;;;4998491;28;20923;-60
2020/12/24 01:08:05;;;;;;;4.13;3.73;;;11.50;99.90;;;;;;4998734;28;20457;-60
2020/12/24 01:10:31;;;;;;;4.80;3.70;;;11.50;99.90;;;;;;4999027;28;20536;-60
2020/12/24 01:12:57;;;;;;;3.60;3.20;;;11.50;99.90;;;;;;4998763;28;20473;-60
2020/12/24 01:15:23;;;;;;;4.63;4.00;;;11.50;99.90;;;;;;4999403;28;20919;-60
2020/12/24 01:17:50;;;;;;;3.77;3.30;;;11.40;99.90;;;;;;4998515;28;20927;-61
2020/12/24 01:20:17;;;;;;;3.73;3.37;;;11.40;99.90;;;;;;4998743;28;20485;-60
2020/12/24 01:22:43;;;;;;;3.50;3.17;;;11.40;99.90;;;;;;4998388;28;20939;-60
2020/12/24 01:25:09;;;;;;;2.80;2.60;;;11.40;99.90;;;;;;4998405;28;20469;-61
2020/12/24 01:27:35;;;;;;;3.40;2.70;;;11.30;99.90;;;;;;4999400;28;20783;-61
2020/12/24 01:30:01;;;;;;;3.23;2.53;;;11.30;99.90;;;;;;4999684;28;20481;-71
2020/12/24 01:32:27;;;;;;;2.90;2.70;;;11.30;99.90;;;;;;4998623;28;20461;-60
2020/12/24 01:34:54;;;;;;;3.87;2.90;;;11.30;99.90;;;;;;4998254;28;20551;-60
2020/12/24 01:37:20;;;;;;;2.53;2.03;;;11.40;99.90;;;;;;4998032;28;20457;-61
2020/12/24 01:39:46;;;;;;;2.60;2.40;;;11.40;99.90;;;;;;4998393;28;20481;-61
2020/12/24 01:42:14;;;;;;;2.33;2.13;;;11.40;99.90;;;;;;4998166;28;20457;-60
2020/12/24 01:44:40;;;;;;;4.63;2.23;;;11.40;99.90;;;;;;4998126;28;20481;-61
2020/12/24 01:47:06;;;;;;;2.13;1.93;;;11.40;99.90;;;;;;4997913;28;20458;-60
2020/12/24 01:49:32;;;;;;;2.17;1.80;;;11.40;99.90;;;;;;4997829;28;20492;-60
2020/12/24 01:51:59;;;;;;;1.97;1.87;;;11.40;99.90;;;;;;4997803;28;20450;-60
2020/12/24 01:54:27;;;;;;;1.90;1.50;;;11.30;99.90;;;;;;4998101;28;20461;-59
2020/12/24 01:56:54;;;;;;;1.60;1.50;;;11.30;99.90;;;;;;4997902;28;20462;-60
2020/12/24 01:59:20;;;;;;;2.30;1.73;;;11.30;99.90;;;;;;4997907;28;20795;-61
2020/12/24 02:01:47;;;;;;;2.07;1.83;;;11.30;99.90;;;;;;4997731;28;20466;-61
2020/12/24 02:04:13;;;;;;;1.70;1.60;;;11.30;99.90;;;;;;4997768;28;20462;-61
2020/12/24 02:06:40;;;;;;;2.70;1.43;;;11.30;99.90;;;;;;4997627;28;20535;-61
2020/12/24 02:09:07;;;;;;;2.10;1.70;;;11.30;99.90;;;;;;4997312;28;20458;-61
2020/12/24 02:11:33;;;;;;;1.70;1.60;;;11.30;99.90;;;;;;4997919;28;20531;-60
2020/12/24 02:13:59;;;;;;;2.07;1.60;;;11.30;99.90;;;;;;4997673;28;20469;-61
2020/12/24 02:16:26;;;;;;;1.67;1.57;;;11.30;99.90;;;;;;4997437;28;20461;-61
2020/12/24 02:18:53;;;;;;;2.20;1.93;;;11.20;99.90;;;;;;4997695;28;20504;-61
2020/12/24 02:21:20;;;;;;;2.40;1.80;;;11.20;99.90;;;;;;4997429;28;20481;-61
2020/12/24 02:23:46;;;;;;;1.90;1.70;;;11.20;99.90;;;;;;4997201;28;20555;-60
2020/12/24 02:26:12;;;;;;;2.30;1.47;;;11.20;99.90;;;;;;4997373;28;20466;-60
2020/12/24 02:28:39;;;;;;;2.20;1.80;;;11.10;99.90;;;;;;4997377;28;20468;-60
2020/12/24 02:31:06;;;;;;;2.90;2.17;;;11.20;99.90;;;;;;4997463;28;20528;-60
2020/12/24 02:33:32;;;;;;;1.87;1.77;;;11.20;99.90;;;;;;4997434;28;20876;-60
2020/12/24 02:35:58;;;;;;;2.73;1.40;;;11.20;99.90;;;;;;4997236;28;20852;-61
2020/12/24 02:38:25;;;;;;;1.67;1.57;;;11.10;99.90;;;;;;4996821;28;20951;-60
2020/12/24 02:40:51;;;;;;;2.23;1.77;;;11.10;99.90;;;;;;4997124;28;20513;-61
2020/12/24 02:43:17;;;;;;;1.97;1.77;;;11.10;99.90;;;;;;4997214;28;20462;-61
2020/12/24 02:45:43;;;;;;;2.17;1.40;;;11.10;99.90;;;;;;4997162;28;20774;-60
2020/12/24 02:48:09;;;;;;;1.80;1.70;;;11.10;99.90;;;;;;4997006;28;20462;-60
2020/12/24 02:50:36;;;;;;;1.93;1.67;;;11.20;99.90;;;;;;4995929;28;20486;-59
2020/12/24 02:53:02;;;;;;;1.73;1.63;;;11.20;99.90;;;;;;4996984;28;20831;-60
2020/12/24 02:55:28;;;;;;;6.93;1.90;;;11.20;99.90;;;;;;4996861;28;20462;-60
2020/12/24 02:57:54;;;;;;;3.27;1.60;;;11.20;99.90;;;;;;4997017;28;20531;-60
2020/12/24 03:00:21;;;;;;;2.10;1.90;;;11.20;99.90;;;;;;4996744;28;20488;-61
2020/12/24 03:02:47;;;;;;;3.33;2.20;;;11.20;99.90;;;;;;4996814;28;20462;-60
2020/12/24 03:05:13;;;;;;;3.17;2.30;;;11.20;99.90;;;;;;4996976;28;20469;-60
2020/12/24 03:07:39;;;;;;;2.90;2.23;;;11.20;99.90;;;;;;4996468;28;20462;-61
2020/12/24 03:10:05;;;;;;;2.23;2.10;;;11.10;99.90;;;;;;4997113;28;20450;-61
2020/12/24 03:12:32;;;;;;;2.67;2.40;;;11.10;99.90;;;;;;4996699;28;20489;-59
2020/12/24 03:14:58;;;;;;;5.37;2.10;;;11.10;99.90;;;;;;4996822;28;20472;-61
2020/12/24 03:17:24;;;;;;;2.50;2.30;;;11.10;99.90;;;;;;4996671;28;20476;-60
2020/12/24 03:19:50;;;;;;;2.60;2.40;;;11.10;99.90;;;;;;4996373;28;20575;-61
2020/12/24 03:22:16;;;;;;;2.90;2.40;;;11.10;99.90;;;;;;4996513;28;20462;-60
2020/12/24 03:24:42;;;;;;;2.87;2.60;;;11.10;99.90;;;;;;4996518;28;20532;-61
2020/12/24 03:27:08;;;;;;;2.40;2.20;;;11.10;99.90;;;;;;4996302;28;20466;-60
2020/12/24 03:29:35;;;;;;;4.20;2.73;;;11.00;99.90;;;;;;4996299;28;20450;-60
2020/12/24 03:32:01;;;;;;;3.10;2.60;;;11.00;99.90;;;;;;4996331;28;20516;-61
2020/12/24 03:34:27;;;;;;;3.47;2.50;;;11.00;99.90;;;;;;4996007;28;20920;-61
2020/12/24 03:36:53;;;;;;;2.40;2.20;;;11.00;99.90;;;;;;4996104;28;20461;-64
2020/12/24 03:39:19;;;;;;;3.30;2.33;;;11.00;99.90;;;;;;4996157;28;20462;-61
2020/12/24 03:41:46;;;;;;;2.93;2.37;;;11.00;99.90;;;;;;4996015;28;20493;-61
2020/12/24 03:44:12;;;;;;;2.40;2.20;;;11.00;99.90;;;;;;4996010;28;20469;-61
2020/12/24 03:46:39;;;;;;;2.17;1.97;;;11.00;99.90;;;;;;4995788;28;20462;-61
2020/12/24 03:49:05;;;;;;;2.47;2.23;;;11.00;99.90;;;;;;4996193;28;20476;-61
2020/12/24 03:51:32;;;;;;;2.80;2.20;;;11.10;99.90;;;;;;4995934;28;20493;-60
2020/12/24 03:53:58;;;;;;;4.00;2.33;;;11.00;99.90;;;;;;4995790;28;20468;-60
2020/12/24 03:56:24;;;;;;;2.13;1.70;;;10.90;99.90;;;;;;4995877;28;20469;-59
2020/12/24 03:58:50;;;;;;;1.93;1.57;;;10.80;99.90;;;;;;4995540;28;20944;-60
2020/12/24 04:01:16;;;;;;;3.03;1.73;;;10.60;99.90;;;;;;4995773;28;20836;-60
2020/12/24 04:03:43;;;;;;;2.37;1.40;;;10.50;99.90;;;;;;4995971;28;21013;-61
2020/12/24 04:06:09;;;;;;;2.23;1.43;;;10.40;99.90;;;;;;4995729;28;20820;-60
2020/12/24 04:08:35;;;;;;;2.40;1.40;;;10.30;99.90;;;;;;4995820;28;20457;-61
2020/12/24 04:11:01;;;;;;;2.10;1.60;;;10.30;99.90;;;;;;4995573;28;20516;-61
2020/12/24 04:13:27;;;;;;;2.47;1.97;;;10.20;99.90;;;;;;4995494;28;20462;-60
2020/12/24 04:15:53;;;;;;;3.17;1.40;;;10.20;99.90;;;;;;4995882;28;20962;-60
2020/12/24 04:18:19;;;;;;;2.13;1.40;;;10.20;99.90;;;;;;4995644;28;20846;-61
2020/12/24 04:20:46;;;;;;;2.63;1.50;;;10.20;99.90;;;;;;4994940;28;20986;-61
2020/12/24 04:23:12;;;;;;;2.80;1.67;;;10.20;99.90;;;;;;4995373;28;20457;-60
2020/12/24 04:25:38;;;;;;;2.53;1.50;;;10.20;99.90;;;;;;4995409;28;20481;-60
2020/12/24 04:28:06;;;;;;;2.43;1.80;;;10.20;99.90;;;;;;4995476;28;20494;-60
2020/12/24 04:30:32;;;;;;;1.67;1.57;;;10.20;99.90;;;;;;4995677;28;20789;-60
2020/12/24 04:32:58;;;;;;;1.80;1.60;;;10.20;99.90;;;;;;4995557;28;20516;-60
2020/12/24 04:35:24;;;;;;;1.67;1.50;;;10.20;99.90;;;;;;4995280;28;20472;-60
2020/12/24 04:37:51;;;;;;;2.20;2.00;;;10.20;99.90;;;;;;4995097;28;20493;-60
2020/12/24 04:40:17;;;;;;;4.53;1.73;;;10.20;99.90;;;;;;4995238;28;20857;-61
2020/12/24 04:42:44;;;;;;;1.70;1.60;;;10.10;99.90;;;;;;4995497;28;20493;-60
2020/12/24 04:45:10;;;;;;;1.63;1.53;;;10.10;99.90;;;;;;4995125;28;20509;-60
2020/12/24 04:47:41;;;;;;;2.23;1.67;;;10.10;99.90;;;;;;4995876;28;20462;-60
2020/12/24 04:50:08;;;;;;;2.07;1.87;;;10.10;99.90;;;;;;4994869;28;20478;-61
2020/12/24 04:52:35;;;;;;;2.67;1.70;;;10.10;99.90;;;;;;4995353;28;20470;-61
2020/12/24 04:55:03;;;;;;;5.30;2.50;;;10.10;99.90;;;;;;4995190;28;20454;-61
2020/12/24 04:57:30;;;;;;;2.80;2.40;;;10.10;99.90;;;;;;4995220;28;20465;-61
2020/12/24 04:59:59;;;;;;;2.33;1.70;;;10.10;99.90;;;;;;4995167;28;20477;-62
2020/12/24 05:02:25;;;;;;;1.70;1.60;;;10.00;99.90;;;;;;4995212;28;20552;-62
2020/12/24 05:04:52;;;;;;;2.10;1.50;;;10.00;99.90;;;;;;4995505;28;20461;-61
2020/12/24 05:07:18;;;;;;;2.83;1.40;;;10.00;99.90;;;;;;4995200;28;20470;-60
2020/12/24 05:09:44;;;;;;;2.40;1.37;;;10.00;99.90;;;;;;4995293;28;20520;-60
2020/12/24 05:12:11;;;;;;;1.90;1.40;;;10.00;99.90;;;;;;4995742;28;20458;-60
2020/12/24 05:14:39;;;;;;;2.33;1.33;;;10.00;99.90;;;;;;4998776;28;20552;-60
2020/12/24 05:17:07;;;;;;;2.43;1.20;;;10.00;99.90;;;;;;4998793;28;20462;-60
2020/12/24 05:19:34;;;;;;;5.90;1.50;;;10.00;99.90;;;;;;4998565;28;20630;-60
2020/12/24 05:22:15;;;;;;;2.03;1.23;;;10.00;99.90;;;;;;4998596;28;20493;-60
2020/12/24 05:24:41;;;;;;;1.50;1.20;;;10.00;99.90;;;;;;4998681;28;20752;-61
2020/12/24 05:27:08;;;;;;;1.77;1.20;;;10.00;99.90;;;;;;4998686;28;20457;-60
2020/12/24 05:29:37;;;;;;;2.60;1.40;;;10.10;99.90;;;;;;4998533;28;20553;-61
2020/12/24 05:32:03;;;;;;;2.10;1.60;;;10.10;99.90;;;;;;4998550;28;20472;-60
2020/12/24 05:34:30;;;;;;;2.20;1.50;;;10.10;99.90;;;;;;4998757;28;20462;-60
2020/12/24 05:37:10;;;;;;;1.70;1.57;;;10.20;99.90;;;;;;4998316;28;20462;-60
2020/12/24 05:39:36;;;;;;;2.20;1.60;;;10.20;99.90;;;;;;4998086;28;20442;-60
2020/12/24 05:42:04;;;;;;;6.33;1.70;;;10.20;99.90;;;;;;4998156;28;20469;-61
2020/12/24 05:44:30;;;;;;;2.97;1.43;;;10.20;99.90;;;;;;4998046;28;20489;-61
2020/12/24 05:46:57;;;;;;;2.57;1.43;;;10.20;99.90;;;;;;4998324;28;20458;-61
2020/12/24 05:49:26;;;;;;;2.67;1.67;;;10.20;99.90;;;;;;4998797;28;20493;-61
2020/12/24 05:51:54;;;;;;;2.63;1.43;;;10.20;99.90;;;;;;4998217;28;20442;-60
2020/12/24 05:54:21;;;;;;;6.30;1.60;;;10.20;99.90;;;;;;4998396;28;20945;-60
2020/12/24 05:56:47;;;;;;;8.03;1.50;;;10.20;99.90;;;;;;4998576;28;20457;-60
2020/12/24 05:59:15;;;;;;;4.07;1.50;;;10.20;99.90;;;;;;4997886;28;20462;-60
2020/12/24 06:02:02;;;;;;;1.90;1.23;;;10.20;99.90;;;;;;4997906;28;20588;-60
2020/12/24 06:04:48;;;;;;;2.10;1.10;;;10.20;99.90;;;;;;4995713;28;20466;-60
2020/12/24 06:07:25;;;;;;;5.27;1.63;;;10.20;99.90;;;;;;4997829;28;20827;-60
2020/12/24 06:09:51;;;;;;;2.73;1.30;;;10.20;99.90;;;;;;4998235;28;20480;-60
2020/12/24 06:12:18;;;;;;;2.60;1.47;;;10.20;99.90;;;;;;4997245;28;20461;-59
2020/12/24 06:14:47;;;;;;;2.10;1.40;;;10.10;99.90;;;;;;4997663;28;20462;-60
2020/12/24 06:17:14;;;;;;;4.70;1.90;;;10.10;99.90;;;;;;4997543;28;20458;-60
2020/12/24 06:19:42;;;;;;;3.20;1.53;;;10.10;99.90;;;;;;4997354;28;20462;-60
2020/12/24 06:22:09;;;;;;;5.03;1.73;;;10.00;99.90;;;;;;4997818;28;20521;-60
2020/12/24 06:24:38;;;;;;;3.17;1.57;;;10.00;99.90;;;;;;4996412;28;20454;-60
2020/12/24 06:27:09;;;;;;;2.70;1.57;;;10.00;99.90;;;;;;4997222;28;20458;-60
2020/12/24 06:29:39;;;;;;;1.57;1.00;;;10.00;99.90;;;;;;4997352;28;20507;-59
2020/12/24 06:32:07;;;;;;;3.30;1.50;;;10.00;99.90;;;;;;4997408;28;20754;-60
2020/12/24 06:34:39;;;;;;;4.47;1.40;;;10.00;99.90;;;;;;4997216;28;20504;-60
2020/12/24 06:37:14;;;;;;;3.37;1.40;;;9.90;99.90;;;;;;4997338;28;20446;-60
2020/12/24 06:39:42;;;;;;;2.60;1.73;;;9.90;99.90;;;;;;4996736;28;20449;-61
2020/12/24 06:42:40;;;;;;;3.40;1.70;;;9.80;99.90;;;;;;4996995;28;20457;-60
2020/12/24 06:45:08;;;;;;;5.70;1.60;;;9.80;99.90;;;;;;4997026;28;20453;-61
2020/12/24 06:47:34;;;;;;;4.13;1.50;;;9.80;99.90;;;;;;4996860;28;20935;-60
2020/12/24 06:50:01;;;;;;;3.70;1.47;;;9.80;99.90;;;;;;4997094;28;20939;-60
2020/12/24 06:52:29;;;;;;;5.17;1.70;;;9.80;99.90;;;;;;4996887;28;20846;-60
2020/12/24 06:55:14;;;;;;;4.17;1.40;;;9.70;99.90;;;;;;4996929;28;20454;-60
2020/12/24 06:57:43;;;;;;;3.03;1.20;;;9.70;99.90;;;;;;4996854;28;20461;-60
2020/12/24 07:00:20;;;;;;;4.77;1.10;;;9.70;99.90;;;;;;4996227;28;20947;-60
2020/12/24 07:02:47;;;;;;;3.80;1.30;;;9.60;99.90;;;;;;4997074;28;20442;-59
2020/12/24 07:05:44;;;;;;;9.77;1.83;;;9.60;99.90;;;;;;4996718;28;20469;-61
2020/12/24 07:08:31;;;;;;;3.83;1.33;;;9.60;99.90;;;;;;4993239;28;20528;-61
2020/12/24 07:10:58;;;;;;;3.80;1.07;;;9.60;99.90;;;;;;4996264;28;20794;-61
2020/12/24 07:13:32;;;;;;;3.17;1.20;;;9.50;99.90;;;;;;4996284;28;20931;-60
2020/12/24 07:15:58;;;;;;;5.80;1.40;;;9.50;99.90;;;;;;4996462;28;20454;-61
2020/12/24 07:18:27;;;;;;;4.23;1.37;;;9.40;99.90;;;;;;4997241;28;20457;-60
2020/12/24 07:20:54;;;;;;;3.93;1.67;;;9.40;99.90;;;;;;4996397;28;20529;-60
2020/12/24 07:23:29;;;;;;;3.10;0.97;;;9.40;99.90;;;;;;4996944;28;20472;-61
2020/12/24 07:25:57;;;;;;;2.73;1.00;;;9.40;99.90;;;;;;4996479;28;20442;-60
2020/12/24 07:28:28;;;;;;;3.43;1.30;;;9.40;99.90;;;;;;4996999;28;20520;-61
2020/12/24 07:30:58;;;;;;;7.80;1.63;;;9.30;99.90;;;;;;4996427;28;20449;-61
2020/12/24 07:33:25;;;;;;;1.83;1.10;;;9.30;99.90;;;;;;4996380;28;20462;-61
2020/12/24 07:35:51;;;;;;;2.67;1.10;;;9.30;99.90;;;;;;4996315;28;20457;-61
2020/12/24 07:38:20;;;;;;;3.10;1.33;;;9.30;99.90;;;;;;4996314;28;20528;-61
2020/12/24 07:40:47;;;;;;;3.20;1.10;;;9.30;99.90;;;;;;4996611;28;20481;-60
2020/12/24 07:43:14;;;;;;;2.90;1.33;;;9.30;99.90;;;;;;4996226;28;20458;-61
2020/12/24 07:45:41;;;;;;;1.87;1.00;;;9.20;99.90;;;;;;4995904;28;20469;-60
2020/12/24 07:48:14;;;;;;;2.30;1.30;;;9.20;99.90;;;;;;4996029;28;20540;-61
2020/12/24 07:50:41;;;;;;;5.37;2.50;;;9.20;99.90;;;;;;4995585;28;20478;-60
2020/12/24 07:53:09;;;;;;;5.87;1.50;;;9.30;99.90;;;;;;4995935;28;20469;-60
2020/12/24 07:55:35;;;;;;;1.57;1.00;;;9.20;99.90;;;;;;4995753;28;20462;-60
2020/12/24 07:58:08;;;;;;;4.20;1.20;;;9.20;99.90;;;;;;4996254;28;20523;-60
2020/12/24 08:00:42;;;;;;;3.00;1.10;;;9.20;99.90;;;;;;4996029;28;20544;-60
2020/12/24 08:03:09;;;;;;;2.63;0.93;;;9.20;99.90;;;;;;4995760;28;20515;-61
2020/12/24 08:05:39;;;;;;;3.17;1.50;;;9.20;99.90;;;;;;4996452;28;20458;-61
2020/12/24 08:08:05;;;;;;;6.50;1.87;;;9.20;99.90;;;;;;4995882;28;20512;-61
2020/12/24 08:10:37;;;;;;;5.50;1.40;;;9.20;99.90;;;;;;4995678;28;20915;-61
2020/12/24 08:13:03;;;;;;;3.07;1.00;;;9.20;99.90;;;;;;4995190;28;20441;-61
2020/12/24 08:15:32;;;;;;;2.13;1.10;;;9.20;99.90;;;;;;4995459;28;20918;-61
2020/12/24 08:18:00;;;;;;;4.77;1.20;;;9.20;99.90;;;;;;4995936;28;20852;-60
2020/12/24 08:20:33;;;;;;;7.37;1.37;;;9.20;99.90;;;;;;4995567;28;20489;-60
2020/12/24 08:23:07;;;;;;;4.80;1.50;;;9.20;99.90;;;;;;4995765;28;20442;-60
2020/12/24 08:25:34;;;;;;;2.37;1.00;;;9.10;99.90;;;;;;4995796;28;20442;-59
2020/12/24 08:28:00;;;;;;;3.93;1.00;;;9.10;99.90;;;;;;4995384;28;20473;-60
2020/12/24 08:30:26;;;;;;;4.40;1.00;;;9.10;99.90;;;;;;4995419;28;20534;-69
2020/12/24 08:32:53;;;;;;;3.13;1.20;;;9.10;99.90;;;;;;4995794;28;20923;-69
2020/12/24 08:35:19;;;;;;;2.80;1.10;;;9.10;99.90;;;;;;4995330;28;20473;-68
2020/12/24 08:37:46;;;;;;;1.90;1.20;;;9.10;99.90;;;;;;4995525;28;20473;-69
2020/12/24 08:40:20;;;;;;;2.50;1.20;;;9.00;99.90;;;;;;4995624;28;20477;-69
2020/12/24 08:42:47;;;;;;;6.70;1.10;;;8.90;99.90;;;;;;4995375;28;20468;-70
2020/12/24 08:45:14;;;;;;;6.20;1.10;;;8.80;99.90;;;;;;4994997;28;20462;-70
2020/12/24 08:47:40;;;;;;;2.00;1.20;;;8.70;99.90;;;;;;4996380;28;20461;-70
2020/12/24 08:50:07;;;;;;;2.37;1.03;;;8.60;99.90;;;;;;4998728;28;20496;-69
2020/12/24 08:52:38;;;;;;;4.70;1.53;;;8.50;99.90;;;;;;4998925;28;20926;-70
2020/12/24 08:55:06;;;;;;;7.87;1.63;;;8.50;99.90;;;;;;4999070;28;20457;-69
2020/12/24 08:57:32;;;;;;;7.37;1.37;;;8.40;99.90;;;;;;4999344;28;20814;-69
2020/12/24 08:59:59;;;;;;;3.13;1.20;;;8.40;99.90;;;;;;4998683;28;20465;-69
2020/12/24 09:02:27;;;;;;;4.53;1.23;;;8.40;99.90;;;;;;4998971;28;20453;-70
2020/12/24 09:04:54;;;;;;;2.00;0.90;;;8.40;99.90;;;;;;4998922;28;20477;-69
2020/12/24 09:07:25;;;;;;;2.70;1.17;;;8.40;99.90;;;;;;4999034;28;20812;-68
2020/12/24 09:10:06;;;;;;;9.70;1.33;;;8.50;99.90;;;;;;4998804;28;20504;-68
2020/12/24 09:12:32;;;;;;;3.70;1.47;;;8.60;99.90;;;;;;4998892;28;20441;-69
2020/12/24 09:14:59;;;;;;;4.13;1.30;;;8.60;99.90;;;;;;4998710;28;20457;-68
2020/12/24 09:17:25;;;;;;;5.30;1.40;;;8.70;99.90;;;;;;4998480;28;20457;-69
2020/12/24 09:20:01;;;;;;;4.63;1.73;;;8.70;99.90;;;;;;4998546;28;20461;-69
2020/12/24 09:22:28;;;;;;;3.33;1.40;;;8.80;99.90;;;;;;4998683;28;20464;-69
2020/12/24 09:24:54;;;;;;;7.70;1.00;;;8.90;99.90;;;;;;4998562;28;20527;-68
2020/12/24 09:27:20;;;;;;;8.40;1.70;;;8.90;99.90;;;;;;4998557;28;20462;-68
2020/12/24 09:29:46;;;;;;;2.90;1.10;;;9.00;99.90;;;;;;4998360;28;20461;-68
2020/12/24 09:32:12;;;;;;;2.37;0.90;;;9.00;99.90;;;;;;4998306;28;20457;-69
2020/12/24 09:34:39;;;;;;;2.10;0.87;;;9.10;99.90;;;;;;4998390;28;20472;-69
2020/12/24 09:37:05;;;;;;;2.57;1.10;;;9.10;99.90;;;;;;4998322;28;20457;-68
2020/12/24 09:39:32;;;;;;;4.20;1.20;;;9.10;99.90;;;;;;4998147;28;20462;-69
2020/12/24 09:41:58;;;;;;;1.40;0.80;;;9.20;99.90;;;;;;4998201;28;20489;-68
2020/12/24 09:44:24;;;;;;;3.20;1.57;;;9.20;99.90;;;;;;4998176;28;20458;-68
2020/12/24 09:46:50;;;;;;;6.00;1.40;;;9.20;99.90;;;;;;4998113;28;20461;-69
2020/12/24 09:49:18;;;;;;;1.67;0.90;;;9.20;99.90;;;;;;4999348;28;20461;-67
2020/12/24 09:51:44;;;;;;;2.03;1.03;;;9.20;99.90;;;;;;4999457;28;20438;-67
2020/12/24 09:54:10;;;;;;;2.47;1.47;;;9.30;99.90;;;;;;4998083;28;20457;-67
2020/12/24 09:56:37;;;;;;;3.53;1.30;;;9.30;99.90;;;;;;4998391;28;20516;-68
2020/12/24 09:59:03;;;;;;;3.30;1.20;;;9.40;99.90;;;;;;4998441;28;20504;-67
2020/12/24 10:01:29;;;;;;;3.10;1.30;;;9.40;99.90;;;;;;4997917;28;20478;-67
2020/12/24 10:03:55;;;;;;;2.40;1.13;;;9.40;99.90;;;;;;4997711;28;20454;-68
2020/12/24 10:06:24;;;;;;;3.53;1.27;;;9.30;99.90;;;;;;4998689;28;20523;-67
2020/12/24 10:08:50;;;;;;;3.67;1.10;;;9.30;99.90;;;;;;4999030;28;20799;-68
2020/12/24 10:11:16;;;;;;;3.43;1.03;;;9.30;99.90;;;;;;4998640;28;20458;-67
2020/12/24 10:13:46;;;;;;;3.50;1.03;;;9.30;99.90;;;;;;4998972;28;20462;-67
2020/12/24 10:16:13;;;;;;;2.83;1.20;;;9.30;99.90;;;;;;5007296;28;20545;-68
2020/12/24 10:18:39;;;;;;;3.00;1.30;;;9.40;99.90;;;;;;5002023;28;20821;-66
2020/12/24 10:21:05;;;;;;;3.50;0.90;;;9.40;99.90;;;;;;5002198;28;20482;-68
2020/12/24 10:23:31;;;;;;;4.70;1.00;;;9.40;99.90;;;;;;4998222;28;20466;-67
2020/12/24 10:25:57;;;;;;;3.53;1.30;;;9.30;99.90;;;;;;4999502;28;20458;-67
2020/12/24 10:28:23;;;;;;;4.27;1.93;;;9.40;99.90;;;;;;4998718;28;20801;-68
2020/12/24 10:30:50;;;;;;;4.70;1.10;;;9.40;99.90;;;;;;4999614;28;20482;-67
2020/12/24 10:33:16;;;;;;;2.50;0.97;;;9.40;99.90;;;;;;5001512;28;20469;-66
2020/12/24 10:35:42;;;;;;;4.07;1.37;;;9.40;99.90;;;;;;5001252;28;20469;-67
2020/12/24 10:38:08;;;;;;;2.70;1.10;;;9.40;99.90;;;;;;5000259;28;20458;-67
2020/12/24 10:40:35;;;;;;;3.70;1.10;;;9.40;99.90;;;;;;4998057;28;20505;-68
2020/12/24 10:43:02;;;;;;;2.50;0.90;;;9.40;99.90;;;;;;4999369;28;20508;-67
2020/12/24 10:45:28;;;;;;;5.63;1.30;;;9.40;99.90;;;;;;4999645;28;20458;-67
2020/12/24 10:47:55;;;;;;;2.50;1.37;;;9.40;99.90;;;;;;4999103;28;20500;-68
2020/12/24 10:50:21;;;;;;;2.60;1.17;;;9.30;99.90;;;;;;4996619;28;20827;-68
2020/12/24 10:52:47;;;;;;;7.13;1.33;;;9.20;99.90;;;;;;4996938;28;20800;-68
2020/12/24 10:55:13;;;;;;;3.27;1.40;;;9.10;99.90;;;;;;4997186;28;20942;-68
2020/12/24 10:57:39;;;;;;;3.40;0.93;;;9.10;99.90;;;;;;4996611;28;20461;-68
2020/12/24 11:00:05;;;;;;;4.60;1.77;;;9.10;99.90;;;;;;4996963;28;20461;-68
2020/12/24 11:02:31;;;;;;;3.73;1.57;;;8.90;99.90;;;;;;4996717;28;20461;-68
2020/12/24 11:04:58;;;;;;;2.80;1.30;;;8.90;99.90;;;;;;4996206;28;20462;-69
2020/12/24 11:07:24;;;;;;;5.20;2.03;;;8.80;99.90;;;;;;4996291;28;20458;-69
2020/12/24 11:09:50;;;;;;;6.30;1.73;;;8.70;99.90;;;;;;4996434;28;20461;-70
2020/12/24 11:12:16;;;;;;;4.00;1.93;;;8.60;99.90;;;;;;4996552;28;20454;-71
2020/12/24 11:14:43;;;;;;;8.80;2.27;;;8.40;99.90;;;;;;4996531;28;20505;-70
2020/12/24 11:17:09;;;;;;;2.67;1.80;;;8.20;99.90;;;;;;4996617;28;20462;-69
2020/12/24 11:19:35;;;;;;;3.80;1.50;;;8.00;99.90;;;;;;4996426;28;20538;-71
2020/12/24 11:22:02;;;;;;;2.53;1.77;;;7.90;99.90;;;;;;4996469;28;20525;-70
2020/12/24 11:24:28;;;;;;;4.53;1.63;;;7.90;99.90;;;;;;4996437;28;20469;-69
2020/12/24 11:26:54;;;;;;;2.37;1.10;;;7.80;99.90;;;;;;4996157;28;20466;-71
2020/12/24 11:29:20;;;;;;;3.70;1.30;;;7.50;99.90;;;;;;4997113;28;20468;-69
2020/12/24 11:31:46;;;;;;;1.63;1.00;;;7.20;99.90;;;;;;4996179;28;20454;-70
2020/12/24 11:34:12;;;;;;;2.23;1.10;;;6.90;99.90;;;;;;4995983;28;20465;-71
2020/12/24 11:36:38;;;;;;;1.53;1.20;;;6.80;99.90;;;;;;4997140;28;20572;-70
2020/12/24 11:39:06;;;;;;;3.60;1.40;;;6.60;99.90;;;;;;4996352;28;20458;-71
2020/12/24 11:41:34;;;;;;;1.60;1.50;;;6.60;99.90;;;;;;4996344;28;20478;-70
2020/12/24 11:44:00;;;;;;;3.80;1.90;;;6.50;99.90;;;;;;4996311;28;20494;-70
2020/12/24 11:46:27;;;;;;;1.83;1.43;;;6.50;99.90;;;;;;4995986;28;20798;-70
2020/12/24 11:48:54;;;;;;;2.03;1.57;;;6.50;99.90;;;;;;4996143;28;20537;-70
2020/12/24 11:51:21;;;;;;;1.60;1.50;;;6.50;99.90;;;;;;4995953;28;20511;-68
2020/12/24 11:53:48;;;;;;;2.40;2.30;;;6.50;99.90;;;;;;4997451;28;20461;-71
2020/12/24 11:56:17;;;;;;;3.03;2.50;;;6.50;99.90;;;;;;4996182;28;20790;-70
2020/12/24 11:58:44;;;;;;;2.20;2.10;;;6.50;99.90;;;;;;4996350;28;20450;-71
2020/12/24 12:01:13;;;;;;;2.00;1.80;;;6.50;99.90;;;;;;4995744;28;20488;-71
2020/12/24 12:03:40;;;;;;;2.70;2.50;;;6.50;99.90;;;;;;4995775;28;20842;-71
2020/12/24 12:06:06;;;;;;;5.20;2.93;;;6.50;99.90;;;;;;4996362;28;21032;-70
2020/12/24 12:08:32;;;;;;;2.90;2.70;;;6.60;99.90;;;;;;4996342;28;20473;-70
2020/12/24 12:11:01;;;;;;;1.80;1.70;;;6.60;99.90;;;;;;4996722;28;20464;-70
2020/12/24 12:13:27;;;;;;;1.40;1.30;;;6.60;99.90;;;;;;4996200;28;20462;-71
2020/12/24 12:15:54;;;;;;;2.63;1.20;;;6.50;99.90;;;;;;4995928;28;20468;-70
2020/12/24 12:18:20;;;;;;;1.83;1.03;;;6.50;99.90;;;;;;4995607;28;20457;-70
2020/12/24 12:20:46;;;;;;;1.17;1.07;;;6.50;99.90;;;;;;4996194;28;20485;-70
2020/12/24 12:23:12;;;;;;;1.30;0.90;;;6.40;99.90;;;;;;4995479;28;20648;-69
2020/12/24 12:25:38;;;;;;;1.10;0.77;;;6.30;99.90;;;;;;4995684;28;20472;-71
2020/12/24 12:28:04;;;;;;;1.10;0.97;;;6.20;99.90;;;;;;4995684;28;20500;-70
2020/12/24 12:30:32;;;;;;;1.20;1.00;;;6.20;99.90;;;;;;4995147;28;20457;-70
2020/12/24 12:32:58;;;;;;;1.10;0.80;;;6.30;99.90;;;;;;4996432;28;20461;-71
2020/12/24 12:35:25;;;;;;;1.60;1.10;;;6.30;99.90;;;;;;4995505;28;20462;-70
2020/12/24 12:37:51;;;;;;;1.60;1.07;;;6.40;99.90;;;;;;4995790;28;20458;-71
2020/12/24 12:40:17;;;;;;;1.10;0.80;;;6.30;99.90;;;;;;4995630;28;20458;-72
2020/12/24 12:42:43;;;;;;;1.37;1.00;;;6.30;99.90;;;;;;4996735;28;20465;-69
2020/12/24 12:45:09;;;;;;;1.43;1.07;;;6.20;99.90;;;;;;4998013;28;20899;-71
2020/12/24 12:47:37;;;;;;;0.90;0.70;;;6.10;99.90;;;;;;4996072;28;20876;-71
2020/12/24 12:50:05;;;;;;;1.23;0.80;;;5.90;99.90;;;;;;4995678;28;20489;-70
2020/12/24 12:52:31;;;;;;;1.10;0.80;;;5.90;99.90;;;;;;4996716;28;20454;-69
2020/12/24 12:54:57;;;;;;;1.00;0.70;;;5.70;99.90;;;;;;4996311;28;20454;-71